sensor_id;sensor_type;location;lat;lon;timestamp;temperature;humidity
44223;DHT22;29895;48.804;9.386;2023-10-13T00:01:50;16.60;99.90
44223;DHT22;29895;48.804;9.386;2023-10-13T00:04:18;16.50;99.90
44223;DHT22;29895;48.804;9.386;2023-10-13T00:06:48;16.50;99.90
44223;DHT22;29895;48.804;9.386;2023-10-13T00:09:13;16.50;99.90
44223;DHT22;29895;48.804;9.386;2023-10-13T00:11:43;16.50;99.90
44223;DHT22;29895;48.804;9.386;2023-10-13T00:14:13;16.40;99.90
44223;DHT22;29895;48.804;9.386;2023-10-13T00:16:43;16.40;99.90
44223;DHT22;29895;48.804;9.386;2023-10-13T00:19:27;16.40;99.90
44223;DHT22;29895;48.804;9.386;2023-10-13T00:21:53;16.30;99.90
44223;DHT22;29895;48.804;9.386;2023-10-13T00:24:21;16.30;99.90
44223;DHT22;29895;48.804;9.386;2023-10-13T00:26:48;16.20;99.90
44223;DHT22;29895;48.804;9.386;2023-10-13T00:29:14;16.10;99.90
44223;DHT22;29895;48.804;9.386;2023-10-13T00:31:43;16.00;99.90
44223;DHT22;29895;48.804;9.386;2023-10-13T00:34:11;15.90;99.90
44223;DHT22;29895;48.804;9.386;2023-10-13T00:36:46;15.90;99.90
44223;DHT22;29895;48.804;9.386;2023-10-13T00:39:38;15.80;99.90
44223;DHT22;29895;48.804;9.386;2023-10-13T00:42:14;15.70;99.90
44223;DHT22;29895;48.804;9.386;2023-10-13T00:44:52;15.50;99.90
44223;DHT22;29895;48.804;9.386;2023-10-13T00:47:21;15.50;99.90
44223;DHT22;29895;48.804;9.386;2023-10-13T00:50:01;15.40;99.90
44223;DHT22;29895;48.804;9.386;2023-10-13T00:52:27;15.40;99.90
44223;DHT22;29895;48.804;9.386;2023-10-13T00:54:55;15.40;99.90
44223;DHT22;29895;48.804;9.386;2023-10-13T00:57:21;15.30;99.90
44223;DHT22;29895;48.804;9.386;2023-10-13T00:59:55;15.30;99.90
44223;DHT22;29895;48.804;9.386;2023-10-13T01:02:23;15.30;99.90
44223;DHT22;29895;48.804;9.386;2023-10-13T01:05:04;15.10;99.90
44223;DHT22;29895;48.804;9.386;2023-10-13T01:07:30;15.00;99.90
44223;DHT22;29895;48.804;9.386;2023-10-13T01:09:56;15.00;99.90
44223;DHT22;29895;48.804;9.386;2023-10-13T01:12:22;15.00;99.90
44223;DHT22;29895;48.804;9.386;2023-10-13T01:14:51;15.00;99.90
44223;DHT22;29895;48.804;9.386;2023-10-13T01:17:17;15.00;99.90
44223;DHT22;29895;48.804;9.386;2023-10-13T01:19:43;15.10;99.90
44223;DHT22;29895;48.804;9.386;2023-10-13T01:22:11;15.20;99.90
44223;DHT22;29895;48.804;9.386;2023-10-13T01:24:37;15.20;99.90
44223;DHT22;29895;48.804;9.386;2023-10-13T01:27:04;15.20;99.90
44223;DHT22;29895;48.804;9.386;2023-10-13T01:29:43;15.10;99.90
44223;DHT22;29895;48.804;9.386;2023-10-13T01:32:14;15.10;99.90
44223;DHT22;29895;48.804;9.386;2023-10-13T01:34:40;15.00;99.90
44223;DHT22;29895;48.804;9.386;2023-10-13T01:37:11;15.00;99.90
44223;DHT22;29895;48.804;9.386;2023-10-13T01:39:37;14.90;99.90
44223;DHT22;29895;48.804;9.386;2023-10-13T01:42:02;14.80;99.90
44223;DHT22;29895;48.804;9.386;2023-10-13T01:44:28;14.70;99.90
44223;DHT22;29895;48.804;9.386;2023-10-13T01:46:56;14.70;99.90
44223;DHT22;29895;48.804;9.386;2023-10-13T01:49:26;14.60;99.90
44223;DHT22;29895;48.804;9.386;2023-10-13T01:51:51;14.60;99.90
44223;DHT22;29895;48.804;9.386;2023-10-13T01:54:17;14.50;99.90
44223;DHT22;29895;48.804;9.386;2023-10-13T01:56:43;14.50;99.90
44223;DHT22;29895;48.804;9.386;2023-10-13T01:59:10;14.40;99.90
44223;DHT22;29895;48.804;9.386;2023-10-13T02:01:36;14.40;99.90
44223;DHT22;29895;48.804;9.386;2023-10-13T02:04:02;14.40;99.90
44223;DHT22;29895;48.804;9.386;2023-10-13T02:06:30;14.30;99.90
44223;DHT22;29895;48.804;9.386;2023-10-13T02:09:01;14.30;99.90
44223;DHT22;29895;48.804;9.386;2023-10-13T02:11:40;14.20;99.90
44223;DHT22;29895;48.804;9.386;2023-10-13T02:14:07;14.10;99.90
44223;DHT22;29895;48.804;9.386;2023-10-13T02:16:33;14.10;99.90
44223;DHT22;29895;48.804;9.386;2023-10-13T02:18:58;14.10;99.90
44223;DHT22;29895;48.804;9.386;2023-10-13T02:21:30;14.10;99.90
44223;DHT22;29895;48.804;9.386;2023-10-13T02:23:58;14.10;99.90
44223;DHT22;29895;48.804;9.386;2023-10-13T02:26:32;14.10;99.90
44223;DHT22;29895;48.804;9.386;2023-10-13T02:29:01;14.00;99.90
44223;DHT22;29895;48.804;9.386;2023-10-13T02:31:37;14.10;99.90
44223;DHT22;29895;48.804;9.386;2023-10-13T02:34:04;14.20;99.90
44223;DHT22;29895;48.804;9.386;2023-10-13T02:36:37;14.10;99.90
44223;DHT22;29895;48.804;9.386;2023-10-13T02:39:13;14.00;99.90
44223;DHT22;29895;48.804;9.386;2023-10-13T02:41:39;14.00;99.90
44223;DHT22;29895;48.804;9.386;2023-10-13T02:44:07;14.00;99.90
44223;DHT22;29895;48.804;9.386;2023-10-13T02:46:36;13.90;99.90
44223;DHT22;29895;48.804;9.386;2023-10-13T02:49:05;13.90;99.90
44223;DHT22;29895;48.804;9.386;2023-10-13T02:51:37;13.90;99.90
44223;DHT22;29895;48.804;9.386;2023-10-13T02:54:06;13.90;99.90
44223;DHT22;29895;48.804;9.386;2023-10-13T02:56:36;13.80;99.90
44223;DHT22;29895;48.804;9.386;2023-10-13T02:59:02;13.70;99.90
44223;DHT22;29895;48.804;9.386;2023-10-13T03:01:35;13.70;99.90
44223;DHT22;29895;48.804;9.386;2023-10-13T03:04:02;13.60;99.90
44223;DHT22;29895;48.804;9.386;2023-10-13T03:06:38;13.50;99.90
44223;DHT22;29895;48.804;9.386;2023-10-13T03:09:08;13.50;99.90
44223;DHT22;29895;48.804;9.386;2023-10-13T03:11:45;13.40;99.90
44223;DHT22;29895;48.804;9.386;2023-10-13T03:14:23;13.40;99.90
44223;DHT22;29895;48.804;9.386;2023-10-13T03:17:02;13.30;99.90
44223;DHT22;29895;48.804;9.386;2023-10-13T03:19:32;13.20;99.90
44223;DHT22;29895;48.804;9.386;2023-10-13T03:22:05;13.30;99.90
44223;DHT22;29895;48.804;9.386;2023-10-13T03:24:38;13.30;99.90
44223;DHT22;29895;48.804;9.386;2023-10-13T03:27:11;13.20;99.90
44223;DHT22;29895;48.804;9.386;2023-10-13T03:29:44;13.20;99.90
44223;DHT22;29895;48.804;9.386;2023-10-13T03:32:11;13.20;99.90
44223;DHT22;29895;48.804;9.386;2023-10-13T03:34:38;13.20;99.90
44223;DHT22;29895;48.804;9.386;2023-10-13T03:37:20;13.10;99.90
44223;DHT22;29895;48.804;9.386;2023-10-13T03:40:06;13.10;99.90
44223;DHT22;29895;48.804;9.386;2023-10-13T03:42:41;13.10;99.90
44223;DHT22;29895;48.804;9.386;2023-10-13T03:45:07;13.00;99.90
44223;DHT22;29895;48.804;9.386;2023-10-13T03:47:36;13.10;99.90
44223;DHT22;29895;48.804;9.386;2023-10-13T03:50:05;13.10;99.90
44223;DHT22;29895;48.804;9.386;2023-10-13T03:52:48;13.10;99.90
44223;DHT22;29895;48.804;9.386;2023-10-13T03:55:14;13.00;99.90
44223;DHT22;29895;48.804;9.386;2023-10-13T03:57:43;12.90;99.90
44223;DHT22;29895;48.804;9.386;2023-10-13T04:00:11;12.90;99.90
44223;DHT22;29895;48.804;9.386;2023-10-13T04:02:47;12.70;99.90
44223;DHT22;29895;48.804;9.386;2023-10-13T04:05:18;12.70;99.90
44223;DHT22;29895;48.804;9.386;2023-10-13T04:08:04;12.70;99.90
44223;DHT22;29895;48.804;9.386;2023-10-13T04:10:49;12.70;99.90
44223;DHT22;29895;48.804;9.386;2023-10-13T04:13:19;12.70;99.90
44223;DHT22;29895;48.804;9.386;2023-10-13T04:16:04;12.80;99.90
44223;DHT22;29895;48.804;9.386;2023-10-13T04:18:49;12.80;99.90
44223;DHT22;29895;48.804;9.386;2023-10-13T04:21:23;12.80;99.90
44223;DHT22;29895;48.804;9.386;2023-10-13T04:24:09;12.90;99.90
44223;DHT22;29895;48.804;9.386;2023-10-13T04:26:55;12.90;99.90
44223;DHT22;29895;48.804;9.386;2023-10-13T04:29:39;13.00;99.90
44223;DHT22;29895;48.804;9.386;2023-10-13T04:32:17;12.90;99.90
44223;DHT22;29895;48.804;9.386;2023-10-13T04:35:00;12.80;99.90
44223;DHT22;29895;48.804;9.386;2023-10-13T04:37:38;12.90;99.90
44223;DHT22;29895;48.804;9.386;2023-10-13T04:40:18;12.90;99.90
44223;DHT22;29895;48.804;9.386;2023-10-13T04:42:46;12.90;99.90
44223;DHT22;29895;48.804;9.386;2023-10-13T04:45:17;12.90;99.90
44223;DHT22;29895;48.804;9.386;2023-10-13T04:47:59;12.80;99.90
44223;DHT22;29895;48.804;9.386;2023-10-13T04:50:45;12.70;99.90
44223;DHT22;29895;48.804;9.386;2023-10-13T04:53:16;12.60;99.90
44223;DHT22;29895;48.804;9.386;2023-10-13T04:55:59;12.60;99.90
44223;DHT22;29895;48.804;9.386;2023-10-13T04:58:25;12.50;99.90
44223;DHT22;29895;48.804;9.386;2023-10-13T05:00:59;12.50;99.90
44223;DHT22;29895;48.804;9.386;2023-10-13T05:03:43;12.40;99.90
44223;DHT22;29895;48.804;9.386;2023-10-13T05:06:28;12.40;99.90
44223;DHT22;29895;48.804;9.386;2023-10-13T05:09:14;12.30;99.90
44223;DHT22;29895;48.804;9.386;2023-10-13T05:11:59;12.30;99.90
44223;DHT22;29895;48.804;9.386;2023-10-13T05:14:43;12.30;99.90
44223;DHT22;29895;48.804;9.386;2023-10-13T05:17:26;12.30;99.90
44223;DHT22;29895;48.804;9.386;2023-10-13T05:20:10;12.20;99.90
44223;DHT22;29895;48.804;9.386;2023-10-13T05:22:54;12.20;99.90
44223;DHT22;29895;48.804;9.386;2023-10-13T05:25:38;12.20;99.90
44223;DHT22;29895;48.804;9.386;2023-10-13T05:28:23;12.20;99.90
44223;DHT22;29895;48.804;9.386;2023-10-13T05:31:07;12.20;99.90
44223;DHT22;29895;48.804;9.386;2023-10-13T05:33:52;12.30;99.90
44223;DHT22;29895;48.804;9.386;2023-10-13T05:36:35;12.30;99.90
44223;DHT22;29895;48.804;9.386;2023-10-13T05:39:20;12.30;99.90
44223;DHT22;29895;48.804;9.386;2023-10-13T05:42:04;12.50;99.90
44223;DHT22;29895;48.804;9.386;2023-10-13T05:44:49;12.70;99.90
44223;DHT22;29895;48.804;9.386;2023-10-13T05:47:33;12.80;99.90
44223;DHT22;29895;48.804;9.386;2023-10-13T05:50:09;12.80;99.90
44223;DHT22;29895;48.804;9.386;2023-10-13T05:52:47;12.90;99.90
44223;DHT22;29895;48.804;9.386;2023-10-13T05:55:30;12.90;99.90
44223;DHT22;29895;48.804;9.386;2023-10-13T05:58:14;13.00;99.90
44223;DHT22;29895;48.804;9.386;2023-10-13T06:00:58;13.00;99.90
44223;DHT22;29895;48.804;9.386;2023-10-13T06:03:43;13.10;99.90
44223;DHT22;29895;48.804;9.386;2023-10-13T06:06:27;13.20;99.90
44223;DHT22;29895;48.804;9.386;2023-10-13T06:09:11;13.20;99.90
44223;DHT22;29895;48.804;9.386;2023-10-13T06:11:55;13.30;99.90
44223;DHT22;29895;48.804;9.386;2023-10-13T06:14:39;13.40;99.90
44223;DHT22;29895;48.804;9.386;2023-10-13T06:17:23;13.50;99.90
44223;DHT22;29895;48.804;9.386;2023-10-13T06:20:08;13.60;99.90
44223;DHT22;29895;48.804;9.386;2023-10-13T06:22:52;13.70;99.90
44223;DHT22;29895;48.804;9.386;2023-10-13T06:25:38;13.80;99.90
44223;DHT22;29895;48.804;9.386;2023-10-13T06:28:22;14.10;99.90
44223;DHT22;29895;48.804;9.386;2023-10-13T06:31:07;14.30;99.90
44223;DHT22;29895;48.804;9.386;2023-10-13T06:33:36;14.40;99.90
44223;DHT22;29895;48.804;9.386;2023-10-13T06:36:07;14.70;99.90
44223;DHT22;29895;48.804;9.386;2023-10-13T06:38:36;15.00;99.90
44223;DHT22;29895;48.804;9.386;2023-10-13T06:41:03;15.20;99.90
44223;DHT22;29895;48.804;9.386;2023-10-13T06:43:35;15.30;99.90
44223;DHT22;29895;48.804;9.386;2023-10-13T06:46:11;15.10;99.90
44223;DHT22;29895;48.804;9.386;2023-10-13T06:48:41;15.00;99.90
44223;DHT22;29895;48.804;9.386;2023-10-13T06:51:07;15.20;99.90
44223;DHT22;29895;48.804;9.386;2023-10-13T06:53:52;15.40;99.90
44223;DHT22;29895;48.804;9.386;2023-10-13T06:56:22;15.70;99.90
44223;DHT22;29895;48.804;9.386;2023-10-13T06:58:52;15.90;99.90
44223;DHT22;29895;48.804;9.386;2023-10-13T07:01:25;16.00;99.90
44223;DHT22;29895;48.804;9.386;2023-10-13T07:03:51;16.00;99.90
44223;DHT22;29895;48.804;9.386;2023-10-13T07:06:21;16.10;99.90
44223;DHT22;29895;48.804;9.386;2023-10-13T07:08:48;16.20;99.90
44223;DHT22;29895;48.804;9.386;2023-10-13T07:11:24;16.20;99.90
44223;DHT22;29895;48.804;9.386;2023-10-13T07:14:01;16.10;99.90
44223;DHT22;29895;48.804;9.386;2023-10-13T07:16:56;16.20;99.90
44223;DHT22;29895;48.804;9.386;2023-10-13T07:19:26;16.30;99.90
44223;DHT22;29895;48.804;9.386;2023-10-13T07:21:55;16.30;99.90
44223;DHT22;29895;48.804;9.386;2023-10-13T07:24:28;16.40;99.90
44223;DHT22;29895;48.804;9.386;2023-10-13T07:26:59;16.40;99.90
44223;DHT22;29895;48.804;9.386;2023-10-13T07:29:30;16.50;99.90
44223;DHT22;29895;48.804;9.386;2023-10-13T07:31:56;16.50;99.90
44223;DHT22;29895;48.804;9.386;2023-10-13T07:34:21;16.40;99.90
44223;DHT22;29895;48.804;9.386;2023-10-13T07:36:55;16.50;99.90
44223;DHT22;29895;48.804;9.386;2023-10-13T07:39:30;16.60;99.90
44223;DHT22;29895;48.804;9.386;2023-10-13T07:42:00;16.90;99.90
44223;DHT22;29895;48.804;9.386;2023-10-13T07:44:30;17.00;99.90
44223;DHT22;29895;48.804;9.386;2023-10-13T07:46:59;17.10;99.90
44223;DHT22;29895;48.804;9.386;2023-10-13T07:49:32;17.10;99.90
44223;DHT22;29895;48.804;9.386;2023-10-13T07:52:03;17.10;99.90
44223;DHT22;29895;48.804;9.386;2023-10-13T07:54:48;17.20;99.90
44223;DHT22;29895;48.804;9.386;2023-10-13T07:57:15;17.40;99.90
44223;DHT22;29895;48.804;9.386;2023-10-13T07:59:42;17.70;99.90
44223;DHT22;29895;48.804;9.386;2023-10-13T08:02:17;17.90;99.90
44223;DHT22;29895;48.804;9.386;2023-10-13T08:05:05;18.20;99.90
44223;DHT22;29895;48.804;9.386;2023-10-13T08:07:34;18.30;99.90
44223;DHT22;29895;48.804;9.386;2023-10-13T08:10:05;18.30;99.90
44223;DHT22;29895;48.804;9.386;2023-10-13T08:12:35;18.40;99.90
44223;DHT22;29895;48.804;9.386;2023-10-13T08:15:03;18.50;99.90
44223;DHT22;29895;48.804;9.386;2023-10-13T08:17:47;18.70;99.90
44223;DHT22;29895;48.804;9.386;2023-10-13T08:20:17;18.70;99.90
44223;DHT22;29895;48.804;9.386;2023-10-13T08:22:43;18.80;99.90
44223;DHT22;29895;48.804;9.386;2023-10-13T08:25:13;19.00;99.90
44223;DHT22;29895;48.804;9.386;2023-10-13T08:27:46;19.40;99.90
44223;DHT22;29895;48.804;9.386;2023-10-13T08:30:16;19.70;99.90
44223;DHT22;29895;48.804;9.386;2023-10-13T08:33:08;20.10;99.90
44223;DHT22;29895;48.804;9.386;2023-10-13T08:35:44;20.40;99.90
44223;DHT22;29895;48.804;9.386;2023-10-13T08:38:28;20.50;99.90
44223;DHT22;29895;48.804;9.386;2023-10-13T08:41:09;20.70;99.90
44223;DHT22;29895;48.804;9.386;2023-10-13T08:43:42;20.90;99.90
44223;DHT22;29895;48.804;9.386;2023-10-13T08:46:10;20.70;99.90
44223;DHT22;29895;48.804;9.386;2023-10-13T08:49:00;20.70;99.90
44223;DHT22;29895;48.804;9.386;2023-10-13T08:51:44;20.80;99.90
44223;DHT22;29895;48.804;9.386;2023-10-13T08:54:15;21.10;99.90
44223;DHT22;29895;48.804;9.386;2023-10-13T08:57:00;21.40;99.90
44223;DHT22;29895;48.804;9.386;2023-10-13T08:59:46;21.60;99.90
44223;DHT22;29895;48.804;9.386;2023-10-13T09:02:21;21.70;99.90
44223;DHT22;29895;48.804;9.386;2023-10-13T09:04:49;22.00;99.90
44223;DHT22;29895;48.804;9.386;2023-10-13T09:07:25;22.00;99.90
44223;DHT22;29895;48.804;9.386;2023-10-13T09:09:51;22.20;99.90
44223;DHT22;29895;48.804;9.386;2023-10-13T09:12:22;22.50;99.90
44223;DHT22;29895;48.804;9.386;2023-10-13T09:14:58;22.70;99.90
44223;DHT22;29895;48.804;9.386;2023-10-13T09:17:25;22.90;99.90
44223;DHT22;29895;48.804;9.386;2023-10-13T09:20:05;22.70;99.90
44223;DHT22;29895;48.804;9.386;2023-10-13T09:22:58;22.90;99.90
44223;DHT22;29895;48.804;9.386;2023-10-13T09:25:30;23.00;99.90
44223;DHT22;29895;48.804;9.386;2023-10-13T09:30:45;23.90;98.60
44223;DHT22;29895;48.804;9.386;2023-10-13T09:33:11;23.90;98.30
44223;DHT22;29895;48.804;9.386;2023-10-13T09:35:46;24.00;97.00
44223;DHT22;29895;48.804;9.386;2023-10-13T09:38:16;24.00;95.70
44223;DHT22;29895;48.804;9.386;2023-10-13T09:40:43;24.60;93.80
44223;DHT22;29895;48.804;9.386;2023-10-13T09:43:19;25.10;93.40
44223;DHT22;29895;48.804;9.386;2023-10-13T09:45:49;25.40;93.00
44223;DHT22;29895;48.804;9.386;2023-10-13T09:48:44;25.70;91.20
44223;DHT22;29895;48.804;9.386;2023-10-13T09:51:16;25.60;92.30
44223;DHT22;29895;48.804;9.386;2023-10-13T09:54:14;25.40;90.60
44223;DHT22;29895;48.804;9.386;2023-10-13T09:56:54;25.10;89.60
44223;DHT22;29895;48.804;9.386;2023-10-13T09:59:24;25.20;89.70
44223;DHT22;29895;48.804;9.386;2023-10-13T10:01:51;25.30;88.80
44223;DHT22;29895;48.804;9.386;2023-10-13T10:04:23;25.30;89.40
44223;DHT22;29895;48.804;9.386;2023-10-13T10:06:56;25.80;87.10
44223;DHT22;29895;48.804;9.386;2023-10-13T10:09:30;25.80;86.00
44223;DHT22;29895;48.804;9.386;2023-10-13T10:12:30;25.90;87.40
44223;DHT22;29895;48.804;9.386;2023-10-13T10:17:39;26.40;86.20
44223;DHT22;29895;48.804;9.386;2023-10-13T10:20:05;26.40;86.60
44223;DHT22;29895;48.804;9.386;2023-10-13T10:22:40;26.50;86.00
44223;DHT22;29895;48.804;9.386;2023-10-13T10:25:13;26.70;85.50
44223;DHT22;29895;48.804;9.386;2023-10-13T10:27:58;26.80;84.00
44223;DHT22;29895;48.804;9.386;2023-10-13T10:30:28;26.90;83.60
44223;DHT22;29895;48.804;9.386;2023-10-13T10:32:58;27.10;83.20
44223;DHT22;29895;48.804;9.386;2023-10-13T10:35:28;27.30;82.70
44223;DHT22;29895;48.804;9.386;2023-10-13T10:38:11;27.20;82.60
44223;DHT22;29895;48.804;9.386;2023-10-13T10:40:57;27.40;82.40
44223;DHT22;29895;48.804;9.386;2023-10-13T10:46:15;27.70;81.80
44223;DHT22;29895;48.804;9.386;2023-10-13T10:48:42;28.20;79.30
44223;DHT22;29895;48.804;9.386;2023-10-13T10:51:14;28.00;79.90
44223;DHT22;29895;48.804;9.386;2023-10-13T10:53:42;28.20;79.60
44223;DHT22;29895;48.804;9.386;2023-10-13T10:56:11;28.50;78.90
44223;DHT22;29895;48.804;9.386;2023-10-13T10:58:54;28.30;79.00
44223;DHT22;29895;48.804;9.386;2023-10-13T11:01:24;28.00;78.70
44223;DHT22;29895;48.804;9.386;2023-10-13T11:04:08;28.00;79.60
44223;DHT22;29895;48.804;9.386;2023-10-13T11:06:37;28.10;79.10
44223;DHT22;29895;48.804;9.386;2023-10-13T11:09:11;28.30;78.60
44223;DHT22;29895;48.804;9.386;2023-10-13T11:11:53;28.50;78.50
44223;DHT22;29895;48.804;9.386;2023-10-13T11:14:29;28.60;78.00
44223;DHT22;29895;48.804;9.386;2023-10-13T11:16:58;28.90;76.50
44223;DHT22;29895;48.804;9.386;2023-10-13T11:19:38;28.90;76.60
44223;DHT22;29895;48.804;9.386;2023-10-13T11:22:15;28.70;76.10
44223;DHT22;29895;48.804;9.386;2023-10-13T11:25:03;28.50;74.70
44223;DHT22;29895;48.804;9.386;2023-10-13T11:27:40;28.20;74.70
44223;DHT22;29895;48.804;9.386;2023-10-13T11:30:18;28.00;75.40
44223;DHT22;29895;48.804;9.386;2023-10-13T11:33:10;28.10;74.00
44223;DHT22;29895;48.804;9.386;2023-10-13T11:35:38;28.30;74.10
44223;DHT22;29895;48.804;9.386;2023-10-13T11:41:00;28.50;73.00
44223;DHT22;29895;48.804;9.386;2023-10-13T11:43:28;28.40;72.80
44223;DHT22;29895;48.804;9.386;2023-10-13T11:45:57;28.20;72.70
44223;DHT22;29895;48.804;9.386;2023-10-13T11:48:35;28.10;73.30
44223;DHT22;29895;48.804;9.386;2023-10-13T11:51:08;28.00;73.40
44223;DHT22;29895;48.804;9.386;2023-10-13T11:53:35;27.90;73.10
44223;DHT22;29895;48.804;9.386;2023-10-13T11:56:01;27.80;73.80
44223;DHT22;29895;48.804;9.386;2023-10-13T11:58:34;27.80;73.40
44223;DHT22;29895;48.804;9.386;2023-10-13T12:01:00;27.80;72.80
44223;DHT22;29895;48.804;9.386;2023-10-13T12:03:41;27.70;73.30
44223;DHT22;29895;48.804;9.386;2023-10-13T12:06:26;27.80;72.90
44223;DHT22;29895;48.804;9.386;2023-10-13T12:08:59;27.90;71.80
44223;DHT22;29895;48.804;9.386;2023-10-13T12:11:37;27.90;72.10
44223;DHT22;29895;48.804;9.386;2023-10-13T12:14:08;28.00;71.30
44223;DHT22;29895;48.804;9.386;2023-10-13T12:16:45;28.00;71.20
44223;DHT22;29895;48.804;9.386;2023-10-13T12:19:21;28.00;71.60
44223;DHT22;29895;48.804;9.386;2023-10-13T12:21:56;27.90;72.00
44223;DHT22;29895;48.804;9.386;2023-10-13T12:24:27;27.90;71.10
44223;DHT22;29895;48.804;9.386;2023-10-13T12:27:08;27.90;70.80
44223;DHT22;29895;48.804;9.386;2023-10-13T12:29:49;27.90;70.80
44223;DHT22;29895;48.804;9.386;2023-10-13T12:32:17;27.80;70.70
44223;DHT22;29895;48.804;9.386;2023-10-13T12:34:48;27.70;70.60
44223;DHT22;29895;48.804;9.386;2023-10-13T12:37:45;27.50;70.20
44223;DHT22;29895;48.804;9.386;2023-10-13T12:40:17;27.50;70.30
44223;DHT22;29895;48.804;9.386;2023-10-13T12:43:02;27.50;70.20
44223;DHT22;29895;48.804;9.386;2023-10-13T12:45:47;27.50;70.90
44223;DHT22;29895;48.804;9.386;2023-10-13T12:48:32;27.50;70.60
44223;DHT22;29895;48.804;9.386;2023-10-13T12:51:16;27.50;71.30
44223;DHT22;29895;48.804;9.386;2023-10-13T12:53:56;27.60;71.30
44223;DHT22;29895;48.804;9.386;2023-10-13T12:56:30;27.60;70.40
44223;DHT22;29895;48.804;9.386;2023-10-13T12:58:56;27.60;70.40
44223;DHT22;29895;48.804;9.386;2023-10-13T13:01:23;27.60;70.30
44223;DHT22;29895;48.804;9.386;2023-10-13T13:03:51;27.60;70.40
44223;DHT22;29895;48.804;9.386;2023-10-13T13:06:26;27.40;70.40
44223;DHT22;29895;48.804;9.386;2023-10-13T13:08:52;27.30;71.00
44223;DHT22;29895;48.804;9.386;2023-10-13T13:11:18;27.40;71.90
44223;DHT22;29895;48.804;9.386;2023-10-13T13:13:43;27.50;71.40
44223;DHT22;29895;48.804;9.386;2023-10-13T13:16:12;27.70;71.30
44223;DHT22;29895;48.804;9.386;2023-10-13T13:18:38;27.80;70.50
44223;DHT22;29895;48.804;9.386;2023-10-13T13:21:04;27.90;70.80
44223;DHT22;29895;48.804;9.386;2023-10-13T13:23:32;27.90;70.10
44223;DHT22;29895;48.804;9.386;2023-10-13T13:26:00;27.90;70.80
44223;DHT22;29895;48.804;9.386;2023-10-13T13:28:26;27.90;70.20
44223;DHT22;29895;48.804;9.386;2023-10-13T13:30:55;27.90;70.20
44223;DHT22;29895;48.804;9.386;2023-10-13T13:33:21;27.90;70.80
44223;DHT22;29895;48.804;9.386;2023-10-13T13:35:54;27.90;69.60
44223;DHT22;29895;48.804;9.386;2023-10-13T13:38:20;28.10;69.90
44223;DHT22;29895;48.804;9.386;2023-10-13T13:40:53;28.10;69.30
44223;DHT22;29895;48.804;9.386;2023-10-13T13:43:22;28.10;69.60
44223;DHT22;29895;48.804;9.386;2023-10-13T13:46:19;28.00;69.00
44223;DHT22;29895;48.804;9.386;2023-10-13T13:48:45;28.10;69.20
44223;DHT22;29895;48.804;9.386;2023-10-13T13:51:13;28.10;68.90
44223;DHT22;29895;48.804;9.386;2023-10-13T13:53:46;28.10;69.20
44223;DHT22;29895;48.804;9.386;2023-10-13T13:56:14;28.00;69.50
44223;DHT22;29895;48.804;9.386;2023-10-13T13:58:45;28.00;69.40
44223;DHT22;29895;48.804;9.386;2023-10-13T14:01:11;27.90;69.00
44223;DHT22;29895;48.804;9.386;2023-10-13T14:03:44;27.90;69.60
44223;DHT22;29895;48.804;9.386;2023-10-13T14:06:20;27.80;69.30
44223;DHT22;29895;48.804;9.386;2023-10-13T14:08:54;27.70;67.10
44223;DHT22;29895;48.804;9.386;2023-10-13T14:11:21;27.70;66.60
44223;DHT22;29895;48.804;9.386;2023-10-13T14:13:47;27.60;66.90
44223;DHT22;29895;48.804;9.386;2023-10-13T14:16:17;27.60;66.10
44223;DHT22;29895;48.804;9.386;2023-10-13T14:18:50;27.60;66.20
44223;DHT22;29895;48.804;9.386;2023-10-13T14:21:16;27.50;66.40
44223;DHT22;29895;48.804;9.386;2023-10-13T14:23:46;27.40;66.30
44223;DHT22;29895;48.804;9.386;2023-10-13T14:26:16;27.50;65.50
44223;DHT22;29895;48.804;9.386;2023-10-13T14:28:54;27.50;65.40
44223;DHT22;29895;48.804;9.386;2023-10-13T14:31:34;27.40;65.60
44223;DHT22;29895;48.804;9.386;2023-10-13T14:34:02;27.40;66.20
44223;DHT22;29895;48.804;9.386;2023-10-13T14:36:28;27.40;66.60
44223;DHT22;29895;48.804;9.386;2023-10-13T14:38:57;27.30;66.50
44223;DHT22;29895;48.804;9.386;2023-10-13T14:41:23;27.30;66.80
44223;DHT22;29895;48.804;9.386;2023-10-13T14:43:49;27.20;66.70
44223;DHT22;29895;48.804;9.386;2023-10-13T14:46:15;27.20;66.00
44223;DHT22;29895;48.804;9.386;2023-10-13T14:48:45;27.10;66.20
44223;DHT22;29895;48.804;9.386;2023-10-13T14:51:14;27.00;66.70
44223;DHT22;29895;48.804;9.386;2023-10-13T14:53:42;26.90;66.60
44223;DHT22;29895;48.804;9.386;2023-10-13T14:56:13;26.90;66.30
44223;DHT22;29895;48.804;9.386;2023-10-13T14:58:39;26.90;66.10
44223;DHT22;29895;48.804;9.386;2023-10-13T15:01:15;26.80;65.70
44223;DHT22;29895;48.804;9.386;2023-10-13T15:03:42;26.80;65.70
44223;DHT22;29895;48.804;9.386;2023-10-13T15:06:21;26.80;65.70
44223;DHT22;29895;48.804;9.386;2023-10-13T15:08:51;26.70;65.60
44223;DHT22;29895;48.804;9.386;2023-10-13T15:11:17;26.70;65.00
44223;DHT22;29895;48.804;9.386;2023-10-13T15:13:46;26.70;64.40
44223;DHT22;29895;48.804;9.386;2023-10-13T15:16:23;26.70;64.00
44223;DHT22;29895;48.804;9.386;2023-10-13T15:18:50;26.70;64.10
44223;DHT22;29895;48.804;9.386;2023-10-13T15:21:20;26.60;64.70
44223;DHT22;29895;48.804;9.386;2023-10-13T15:23:53;26.50;64.60
44223;DHT22;29895;48.804;9.386;2023-10-13T15:26:21;26.50;64.50
44223;DHT22;29895;48.804;9.386;2023-10-13T15:28:48;26.40;64.20
44223;DHT22;29895;48.804;9.386;2023-10-13T15:31:16;26.30;63.90
44223;DHT22;29895;48.804;9.386;2023-10-13T15:34:01;26.20;63.70
44223;DHT22;29895;48.804;9.386;2023-10-13T15:36:32;26.20;63.80
44223;DHT22;29895;48.804;9.386;2023-10-13T15:38:58;26.10;64.30
44223;DHT22;29895;48.804;9.386;2023-10-13T15:41:25;26.00;64.40
44223;DHT22;29895;48.804;9.386;2023-10-13T15:43:51;25.90;64.20
44223;DHT22;29895;48.804;9.386;2023-10-13T15:46:19;25.90;63.50
44223;DHT22;29895;48.804;9.386;2023-10-13T15:48:51;25.90;62.50
44223;DHT22;29895;48.804;9.386;2023-10-13T15:51:18;25.80;62.60
44223;DHT22;29895;48.804;9.386;2023-10-13T15:53:45;25.80;62.80
44223;DHT22;29895;48.804;9.386;2023-10-13T15:56:14;25.70;62.60
44223;DHT22;29895;48.804;9.386;2023-10-13T15:58:46;25.70;63.00
44223;DHT22;29895;48.804;9.386;2023-10-13T16:01:16;25.60;62.70
44223;DHT22;29895;48.804;9.386;2023-10-13T16:03:42;25.50;63.60
44223;DHT22;29895;48.804;9.386;2023-10-13T16:06:10;25.40;63.50
44223;DHT22;29895;48.804;9.386;2023-10-13T16:08:37;25.30;63.90
44223;DHT22;29895;48.804;9.386;2023-10-13T16:11:06;25.20;63.70
44223;DHT22;29895;48.804;9.386;2023-10-13T16:13:34;25.20;63.70
44223;DHT22;29895;48.804;9.386;2023-10-13T16:16:02;25.00;64.40
44223;DHT22;29895;48.804;9.386;2023-10-13T16:18:28;24.80;64.30
44223;DHT22;29895;48.804;9.386;2023-10-13T16:20:58;24.60;65.50